Ada, Oklahoma
Current Conditions -  °F | °C
As of 5:15 PM on Wednesday 17 Dec 2014 (Local Time) from KADH Reporting Station
Moderate Rain Moderate Rain  
Wind Chill: -3°   Ceiling: 4600
Heat Index:   Visibility: 5mi
Dew Point:   Wind: 14mph
Humidity: 100%   Direction: 140°SE
Pressure: 30.15"   Gusts: NA
Location:  34.78°N, 96.68°W
Report Text: KADH 172315Z AUTO 14012KT 5SM RA SCT005 BKN046 OVC060 02/02 A3015 RMK AO2 P0002
Loading
Personal Weather Stations






























Interactive Weather Map New forecast layout! Learn more

10-Day Weather Forecast

Advertisements
Track Severe Weather on mobile